createdAt,value
2019-06-20T00:00:42.417Z,988.22
2019-06-20T00:01:42.451Z,988.21
2019-06-20T00:02:42.497Z,988.23
2019-06-20T00:03:42.544Z,988.19
2019-06-20T00:04:42.588Z,988.17
2019-06-20T00:05:42.634Z,988.20
2019-06-20T00:06:42.687Z,988.20
2019-06-20T00:07:42.728Z,988.17
2019-06-20T00:08:42.770Z,988.21
2019-06-20T00:09:42.841Z,988.24
2019-06-20T00:10:42.882Z,988.25
2019-06-20T00:11:42.913Z,988.27
2019-06-20T00:12:42.960Z,988.35
2019-06-20T00:13:43.004Z,988.31
2019-06-20T00:14:43.050Z,988.31
2019-06-20T00:15:43.094Z,988.28
2019-06-20T00:16:43.141Z,988.27
2019-06-20T00:17:43.187Z,988.27
2019-06-20T00:18:43.240Z,988.30
2019-06-20T00:19:43.279Z,988.33
2019-06-20T00:20:43.324Z,988.32
2019-06-20T00:21:43.372Z,988.34
2019-06-20T00:22:43.416Z,988.32
2019-06-20T00:23:43.463Z,988.37
2019-06-20T00:24:43.563Z,988.39
2019-06-20T00:25:43.556Z,988.32
2019-06-20T00:26:43.601Z,988.36
2019-06-20T00:27:43.646Z,988.37
2019-06-20T00:28:43.693Z,988.34
2019-06-20T00:29:43.744Z,988.31
2019-06-20T00:30:43.786Z,988.31
2019-06-20T00:31:43.835Z,988.35
2019-06-20T00:32:43.882Z,988.31
2019-06-20T00:33:43.927Z,988.28
2019-06-20T00:34:43.970Z,988.25
2019-06-20T00:35:44.018Z,988.27
2019-06-20T00:36:44.067Z,988.26
2019-06-20T00:37:44.112Z,988.31
2019-06-20T00:38:44.155Z,988.28
2019-06-20T00:39:44.208Z,988.24
2019-06-20T00:40:44.246Z,988.26
2019-06-20T00:41:44.293Z,988.22
2019-06-20T00:42:44.335Z,988.23
2019-06-20T00:43:44.393Z,988.27
2019-06-20T00:44:44.432Z,988.28
2019-06-20T00:45:44.482Z,988.28
2019-06-20T00:46:44.593Z,988.34
2019-06-20T00:47:44.577Z,988.37
2019-06-20T00:48:44.622Z,988.36
2019-06-20T00:49:44.660Z,988.38
2019-06-20T00:50:44.706Z,988.40
2019-06-20T00:51:44.752Z,988.37
2019-06-20T00:52:44.803Z,988.42
2019-06-20T00:53:44.843Z,988.39
2019-06-20T00:54:44.888Z,988.40
2019-06-20T00:55:44.933Z,988.42
2019-06-20T00:56:44.985Z,988.42
2019-06-20T00:57:45.029Z,988.43
2019-06-20T00:58:45.084Z,988.48
2019-06-20T00:59:45.139Z,988.53
2019-06-20T01:00:45.165Z,988.48
2019-06-20T01:01:45.210Z,988.49
2019-06-20T01:02:45.258Z,988.48
2019-06-20T01:03:45.304Z,988.51
2019-06-20T01:04:45.357Z,988.46
2019-06-20T01:05:45.398Z,988.49
2019-06-20T01:06:45.440Z,988.49
2019-06-20T01:07:45.487Z,988.52
2019-06-20T01:08:45.532Z,988.50
2019-06-20T01:09:45.579Z,988.51
2019-06-20T01:10:45.625Z,988.53
2019-06-20T01:11:45.669Z,988.45
2019-06-20T01:12:45.720Z,988.44
2019-06-20T01:13:45.760Z,988.43
2019-06-20T01:14:45.817Z,988.38
2019-06-20T01:15:45.858Z,988.33
2019-06-20T01:16:45.898Z,988.28
2019-06-20T01:17:46.117Z,988.26
2019-06-20T01:18:45.992Z,988.25
2019-06-20T01:19:46.035Z,988.24
2019-06-20T01:20:46.081Z,988.30
2019-06-20T01:21:46.134Z,988.36
2019-06-20T01:22:46.176Z,988.34
2019-06-20T01:23:46.221Z,988.40
2019-06-20T01:24:46.267Z,988.39
2019-06-20T01:25:46.322Z,988.39
2019-06-20T01:26:46.358Z,988.39
2019-06-20T01:27:46.408Z,988.40
2019-06-20T01:28:46.456Z,988.42
2019-06-20T01:29:46.499Z,988.43
2019-06-20T01:30:46.542Z,988.41
2019-06-20T01:31:46.598Z,988.44
2019-06-20T01:32:46.636Z,988.42
2019-06-20T01:33:46.688Z,988.38
2019-06-20T01:34:46.789Z,988.34
2019-06-20T01:35:46.775Z,988.37
2019-06-20T01:36:46.817Z,988.36
2019-06-20T01:37:46.866Z,988.35
2019-06-20T01:38:46.911Z,988.32
2019-06-20T01:39:46.952Z,988.34
2019-06-20T01:40:47.013Z,988.32
2019-06-20T01:41:47.044Z,988.30
2019-06-20T01:42:47.088Z,988.25
2019-06-20T01:43:50.854Z,988.23
2019-06-20T01:44:47.182Z,988.20
2019-06-20T01:45:47.225Z,988.24
2019-06-20T01:46:47.272Z,988.24
2019-06-20T01:47:47.433Z,988.28
2019-06-20T01:48:47.370Z,988.28
2019-06-20T01:49:47.419Z,988.28
2019-06-20T01:50:47.454Z,988.35
2019-06-20T01:51:47.514Z,988.36
2019-06-20T01:52:47.546Z,988.36
2019-06-20T01:53:47.589Z,988.38
2019-06-20T01:54:47.639Z,988.35
2019-06-20T01:55:47.682Z,988.28
2019-06-20T01:56:47.727Z,988.25
2019-06-20T01:57:47.801Z,988.31
2019-06-20T01:58:47.820Z,988.31
2019-06-20T01:59:47.867Z,988.30
2019-06-20T02:00:47.919Z,988.33
2019-06-20T02:01:47.964Z,988.33
2019-06-20T02:02:48.012Z,988.30
2019-06-20T02:03:48.047Z,988.26
2019-06-20T02:04:48.127Z,988.30
2019-06-20T02:05:48.138Z,988.38
2019-06-20T02:06:48.180Z,988.41
2019-06-20T02:07:48.229Z,988.45
2019-06-20T02:08:48.278Z,988.47
2019-06-20T02:09:48.320Z,988.53
2019-06-20T02:10:48.372Z,988.56
2019-06-20T02:11:48.410Z,988.57
2019-06-20T02:12:48.484Z,988.59
2019-06-20T02:13:48.639Z,988.58
2019-06-20T02:14:48.546Z,988.61
2019-06-20T02:15:48.590Z,988.62
2019-06-20T02:16:48.671Z,988.68
2019-06-20T02:17:48.760Z,988.72
2019-06-20T02:18:48.731Z,988.78
2019-06-20T02:19:48.775Z,988.78
2019-06-20T02:20:48.953Z,988.81
2019-06-20T02:21:48.874Z,988.86
2019-06-20T02:22:48.994Z,988.90
2019-06-20T02:23:48.976Z,988.97
2019-06-20T02:24:49.075Z,988.94
2019-06-20T02:25:49.049Z,988.99
2019-06-20T02:26:49.101Z,989.06
2019-06-20T02:27:49.138Z,989.04
2019-06-20T02:28:49.199Z,989.11
2019-06-20T02:29:49.233Z,989.12
2019-06-20T02:30:49.314Z,989.14
2019-06-20T02:31:49.332Z,989.21
2019-06-20T02:32:49.365Z,989.21
2019-06-20T02:33:49.471Z,989.23
2019-06-20T02:34:49.461Z,989.28
2019-06-20T02:35:49.510Z,989.27
2019-06-20T02:36:49.557Z,989.31
2019-06-20T02:37:49.634Z,989.28
2019-06-20T02:38:49.638Z,989.29
2019-06-20T02:39:49.690Z,989.36
2019-06-20T02:40:49.744Z,989.42
2019-06-20T02:41:49.782Z,989.41
2019-06-20T02:42:49.918Z,989.44
2019-06-20T02:43:49.867Z,989.39
2019-06-20T02:44:49.917Z,989.35
2019-06-20T02:45:49.962Z,989.35
2019-06-20T02:46:50.029Z,989.31
2019-06-20T02:47:50.061Z,989.29
2019-06-20T02:48:50.108Z,989.28
2019-06-20T02:49:50.141Z,989.22
2019-06-20T02:50:50.184Z,989.25
2019-06-20T02:51:50.240Z,989.24
2019-06-20T02:52:50.279Z,989.25
2019-06-20T02:53:50.321Z,989.20
2019-06-20T02:54:50.371Z,989.20
2019-06-20T02:55:50.547Z,989.17
2019-06-20T02:56:50.459Z,989.16
2019-06-20T02:57:50.503Z,989.11
2019-06-20T02:58:50.548Z,989.11
2019-06-20T02:59:50.592Z,989.12
2019-06-20T03:00:50.640Z,989.16
2019-06-20T03:01:50.689Z,989.18
2019-06-20T03:02:50.733Z,989.19
2019-06-20T03:03:50.801Z,989.09
2019-06-20T03:04:50.829Z,989.06
2019-06-20T03:05:50.867Z,988.96
2019-06-20T03:06:50.910Z,988.90
2019-06-20T03:07:50.961Z,988.86
2019-06-20T03:08:51.006Z,988.92
2019-06-20T03:09:51.059Z,989.01
2019-06-20T03:10:51.102Z,989.11
2019-06-20T03:11:51.141Z,989.24
2019-06-20T03:12:51.184Z,989.34
2019-06-20T03:13:51.233Z,989.36
2019-06-20T03:14:51.284Z,989.24
2019-06-20T03:15:51.326Z,989.23
2019-06-20T03:16:51.372Z,989.16
2019-06-20T03:17:51.412Z,989.16
2019-06-20T03:18:51.467Z,989.11
2019-06-20T03:19:51.510Z,989.14
2019-06-20T03:20:51.549Z,989.18
2019-06-20T03:21:51.594Z,989.25
2019-06-20T03:22:51.643Z,989.32
2019-06-20T03:23:51.683Z,989.31
2019-06-20T03:24:51.752Z,989.32
2019-06-20T03:25:51.777Z,989.35
2019-06-20T03:26:51.835Z,989.39
2019-06-20T03:27:51.868Z,989.34
2019-06-20T03:28:51.910Z,989.32
2019-06-20T03:29:51.966Z,989.37
2019-06-20T03:30:52.003Z,989.39
2019-06-20T03:31:52.055Z,989.38
2019-06-20T03:32:52.097Z,989.38
2019-06-20T03:33:52.149Z,989.32
2019-06-20T03:34:52.182Z,989.26
2019-06-20T03:35:52.279Z,989.26
2019-06-20T03:36:52.274Z,989.27
2019-06-20T03:37:52.325Z,989.33
2019-06-20T03:38:52.371Z,989.34
2019-06-20T03:39:52.419Z,989.39
2019-06-20T03:40:52.458Z,989.44
2019-06-20T03:41:52.502Z,989.44
2019-06-20T03:42:52.548Z,989.46
2019-06-20T03:43:52.608Z,989.45
2019-06-20T03:45:01.757Z,989.45
2019-06-20T03:45:52.686Z,989.45
2019-06-20T03:46:52.731Z,989.44
2019-06-20T03:47:52.775Z,989.49
2019-06-20T03:48:52.822Z,989.50
2019-06-20T03:49:52.868Z,989.53
2019-06-20T03:50:52.916Z,989.54
2019-06-20T03:51:52.958Z,989.51
2019-06-20T03:52:53.003Z,989.50
2019-06-20T03:53:53.057Z,989.50
2019-06-20T03:54:53.093Z,989.48
2019-06-20T03:55:53.138Z,989.49
2019-06-20T03:56:53.184Z,989.45
2019-06-20T03:57:53.230Z,989.46
2019-06-20T03:58:53.279Z,989.45
2019-06-20T03:59:53.323Z,989.45
2019-06-20T04:00:53.374Z,989.53
2019-06-20T04:01:53.413Z,989.54
2019-06-20T04:02:53.459Z,989.56
2019-06-20T04:03:53.507Z,989.55
2019-06-20T04:04:53.549Z,989.48
2019-06-20T04:05:53.598Z,989.50
2019-06-20T04:06:53.641Z,989.49
2019-06-20T04:07:53.693Z,989.49
2019-06-20T04:08:53.734Z,989.47
2019-06-20T04:09:53.778Z,989.46
2019-06-20T04:10:53.841Z,989.56
2019-06-20T04:11:53.868Z,989.57
2019-06-20T04:12:53.917Z,989.59
2019-06-20T04:13:53.964Z,989.62
2019-06-20T04:14:54.004Z,989.67
2019-06-20T04:15:54.053Z,989.69
2019-06-20T04:16:54.098Z,989.73
2019-06-20T04:17:54.185Z,989.71
2019-06-20T04:18:54.185Z,989.72
2019-06-20T04:19:54.239Z,989.74
2019-06-20T04:20:54.281Z,989.73
2019-06-20T04:21:54.323Z,989.75
2019-06-20T04:22:54.373Z,989.73
2019-06-20T04:23:54.420Z,989.71
2019-06-20T04:24:54.464Z,989.66
2019-06-20T04:25:54.505Z,989.62
2019-06-20T04:26:54.551Z,989.67
2019-06-20T04:27:54.598Z,989.70
2019-06-20T04:28:54.644Z,989.72
2019-06-20T04:29:54.688Z,989.75
2019-06-20T04:30:54.735Z,989.78
2019-06-20T04:31:54.904Z,989.77
2019-06-20T04:32:54.831Z,989.78
2019-06-20T04:33:54.869Z,989.78
2019-06-20T04:34:54.915Z,989.80
2019-06-20T04:35:54.963Z,989.83
2019-06-20T04:36:55.008Z,989.89
2019-06-20T04:37:55.061Z,989.88
2019-06-20T04:38:55.102Z,989.88
2019-06-20T04:39:55.156Z,989.93
2019-06-20T04:40:55.198Z,989.94
2019-06-20T04:41:55.237Z,989.92
2019-06-20T04:42:55.283Z,989.90
2019-06-20T04:43:55.334Z,989.92
2019-06-20T04:44:55.373Z,989.96
2019-06-20T04:45:55.418Z,990.01
2019-06-20T04:46:55.463Z,990.04
2019-06-20T04:47:55.510Z,990.07
2019-06-20T04:48:55.559Z,990.12
2019-06-20T04:49:55.601Z,990.10
2019-06-20T04:50:55.648Z,990.04
2019-06-20T04:51:55.692Z,990.07
2019-06-20T04:52:55.739Z,990.03
2019-06-20T04:53:55.784Z,990.07
2019-06-20T04:54:55.829Z,990.07
2019-06-20T04:55:55.889Z,990.09
2019-06-20T04:56:55.923Z,990.09
2019-06-20T04:57:55.986Z,990.09
2019-06-20T04:58:56.011Z,990.09
2019-06-20T04:59:56.070Z,990.12
2019-06-20T05:00:56.109Z,990.11
2019-06-20T05:01:56.151Z,990.11
2019-06-20T05:02:56.207Z,990.12
2019-06-20T05:03:56.245Z,990.17
2019-06-20T05:04:56.288Z,990.19
2019-06-20T05:05:56.345Z,990.18
2019-06-20T05:06:56.380Z,990.22
2019-06-20T05:07:56.426Z,990.22
2019-06-20T05:08:56.475Z,990.22
2019-06-20T05:09:56.521Z,990.24
2019-06-20T05:10:56.564Z,990.20
2019-06-20T05:11:56.612Z,990.22
2019-06-20T05:12:56.657Z,990.23
2019-06-20T05:13:56.726Z,990.22
2019-06-20T05:14:56.747Z,990.18
2019-06-20T05:15:56.796Z,990.19
2019-06-20T05:16:56.839Z,990.22
2019-06-20T05:17:56.886Z,990.24
2019-06-20T05:18:56.937Z,990.26
2019-06-20T05:19:56.979Z,990.27
2019-06-20T05:20:57.025Z,990.22
2019-06-20T05:21:57.072Z,990.20
2019-06-20T05:22:57.116Z,990.15
2019-06-20T05:23:57.172Z,990.12
2019-06-20T05:24:57.216Z,990.09
2019-06-20T05:25:57.257Z,990.16
2019-06-20T05:26:57.304Z,990.27
2019-06-20T05:27:57.356Z,990.24
2019-06-20T05:28:57.395Z,990.31
2019-06-20T05:29:57.439Z,990.31
2019-06-20T05:30:57.487Z,990.36
2019-06-20T05:31:57.535Z,990.29
2019-06-20T05:32:57.582Z,990.29
2019-06-20T05:33:57.639Z,990.26
2019-06-20T05:34:57.676Z,990.26
2019-06-20T05:35:57.717Z,990.24
2019-06-20T05:36:57.767Z,990.31
2019-06-20T05:37:57.809Z,990.32
2019-06-20T05:38:57.857Z,990.34
2019-06-20T05:39:57.903Z,990.35
2019-06-20T05:40:57.947Z,990.35
2019-06-20T05:41:58.055Z,990.31
2019-06-20T05:42:58.041Z,990.39
2019-06-20T05:43:58.088Z,990.39
2019-06-20T05:44:58.134Z,990.37
2019-06-20T05:46:08.928Z,990.37
2019-06-20T05:47:12.353Z,990.34
2019-06-20T05:47:58.274Z,990.38
2019-06-20T05:48:58.319Z,990.41
2019-06-20T05:49:58.365Z,990.45
2019-06-20T05:50:58.452Z,990.45
2019-06-20T05:51:59.386Z,990.54
2019-06-20T05:52:58.511Z,990.52
2019-06-20T05:53:58.560Z,990.54
2019-06-20T05:54:58.599Z,990.56
2019-06-20T05:55:58.646Z,990.58
2019-06-20T05:56:58.691Z,990.51
2019-06-20T05:57:58.741Z,990.44
2019-06-20T05:58:58.794Z,990.45
2019-06-20T05:59:58.860Z,990.52
2019-06-20T06:00:58.881Z,990.48
2019-06-20T06:01:58.928Z,990.55
2019-06-20T06:02:58.973Z,990.60
2019-06-20T06:03:59.017Z,990.43
2019-06-20T06:04:59.064Z,990.38
2019-06-20T06:05:59.131Z,990.35
2019-06-20T06:06:59.157Z,990.32
2019-06-20T06:07:59.205Z,990.29
2019-06-20T06:08:59.258Z,990.29
2019-06-20T06:10:03.707Z,990.26
2019-06-20T06:10:59.350Z,990.30
2019-06-20T06:11:59.397Z,990.34
2019-06-20T06:12:59.441Z,990.34
2019-06-20T06:13:59.493Z,990.35
2019-06-20T06:15:00.998Z,990.34
2019-06-20T06:16:00.264Z,990.35
2019-06-20T06:16:59.633Z,990.42
2019-06-20T06:17:59.690Z,990.47
2019-06-20T06:18:59.727Z,990.49
2019-06-20T06:19:59.780Z,990.50
2019-06-20T06:20:59.820Z,990.49
2019-06-20T06:21:59.880Z,990.47
2019-06-20T06:22:59.913Z,990.46
2019-06-20T06:23:59.968Z,990.46
2019-06-20T06:25:00.008Z,990.46
2019-06-20T06:26:00.055Z,990.47
2019-06-20T06:27:00.370Z,990.43
2019-06-20T06:28:00.155Z,990.43
2019-06-20T06:29:00.196Z,990.48
2019-06-20T06:30:00.245Z,990.47
2019-06-20T06:31:00.289Z,990.49
2019-06-20T06:32:00.351Z,990.51
2019-06-20T06:33:00.385Z,990.49
2019-06-20T06:34:00.450Z,990.54
2019-06-20T06:35:00.511Z,990.52
2019-06-20T06:36:00.525Z,990.52
2019-06-20T06:37:00.600Z,990.46
2019-06-20T06:38:00.642Z,990.51
2019-06-20T06:39:00.673Z,990.48
2019-06-20T06:40:00.714Z,990.41
2019-06-20T06:41:00.763Z,990.42
2019-06-20T06:42:00.845Z,990.41
2019-06-20T06:43:00.856Z,990.39
2019-06-20T06:44:00.903Z,990.40
2019-06-20T06:45:00.962Z,990.40
2019-06-20T06:46:00.998Z,990.38
2019-06-20T06:47:01.072Z,990.36
2019-06-20T06:48:01.091Z,990.36
2019-06-20T06:49:01.146Z,990.39
2019-06-20T06:50:01.187Z,990.36
2019-06-20T06:51:01.472Z,990.36
2019-06-20T06:52:01.280Z,990.40
2019-06-20T06:53:01.362Z,990.39
2019-06-20T06:54:01.384Z,990.37
2019-06-20T06:55:01.423Z,990.41
2019-06-20T06:56:01.475Z,990.39
2019-06-20T06:57:01.585Z,990.36
2019-06-20T06:58:01.562Z,990.36
2019-06-20T06:59:01.608Z,990.40
2019-06-20T07:00:01.667Z,990.38
2019-06-20T07:01:01.714Z,990.42
2019-06-20T07:02:01.751Z,990.39
2019-06-20T07:03:01.805Z,990.42
2019-06-20T07:04:01.847Z,990.43
2019-06-20T07:05:02.048Z,990.42
2019-06-20T07:06:01.947Z,990.45
2019-06-20T07:07:01.994Z,990.45
2019-06-20T07:08:02.038Z,990.47
2019-06-20T07:09:02.090Z,990.51
2019-06-20T07:10:02.134Z,990.52
2019-06-20T07:11:02.180Z,990.48
2019-06-20T07:12:02.225Z,990.52
2019-06-20T07:13:02.276Z,990.51
2019-06-20T07:14:02.566Z,990.47
2019-06-20T07:15:02.366Z,990.52
2019-06-20T07:16:02.411Z,990.54
2019-06-20T07:17:02.459Z,990.63
2019-06-20T07:18:02.514Z,990.56
2019-06-20T07:19:02.557Z,990.59
2019-06-20T07:20:02.602Z,990.62
2019-06-20T07:21:02.648Z,990.60
2019-06-20T07:22:02.707Z,990.61
2019-06-20T07:23:02.747Z,990.64
2019-06-20T07:24:02.913Z,990.61
2019-06-20T07:25:02.838Z,990.57
2019-06-20T07:26:02.965Z,990.53
2019-06-20T07:27:02.934Z,990.46
2019-06-20T07:28:02.985Z,990.48
2019-06-20T07:29:03.033Z,990.39
2019-06-20T07:30:03.084Z,990.36
2019-06-20T07:31:03.126Z,990.38
2019-06-20T07:32:03.175Z,990.39
2019-06-20T07:33:03.224Z,990.45
2019-06-20T07:34:03.349Z,990.50
2019-06-20T07:35:03.314Z,990.55
2019-06-20T07:36:03.365Z,990.53
2019-06-20T07:37:03.427Z,990.54
2019-06-20T07:38:03.468Z,990.59
2019-06-20T07:39:03.508Z,990.60
2019-06-20T07:40:03.559Z,990.61
2019-06-20T07:41:03.667Z,990.52
2019-06-20T07:42:03.658Z,990.49
2019-06-20T07:43:03.705Z,990.47
2019-06-20T07:44:03.748Z,990.45
2019-06-20T07:45:03.795Z,990.42
2019-06-20T07:46:03.850Z,990.42
2019-06-20T07:47:16.945Z,990.39
2019-06-20T07:48:03.937Z,990.43
2019-06-20T07:49:03.986Z,990.36
2019-06-20T07:50:04.035Z,990.39
2019-06-20T07:51:04.080Z,990.40
2019-06-20T07:52:04.131Z,990.38
2019-06-20T07:53:04.179Z,990.36
2019-06-20T07:54:04.229Z,990.30
2019-06-20T07:55:04.274Z,990.27
2019-06-20T07:56:04.326Z,990.26
2019-06-20T07:57:04.382Z,990.25
2019-06-20T07:58:04.420Z,990.32
2019-06-20T07:59:04.473Z,990.38
2019-06-20T08:00:04.518Z,990.40
2019-06-20T08:01:04.594Z,990.43
2019-06-20T08:02:04.613Z,990.44
2019-06-20T08:03:04.667Z,990.41
2019-06-20T08:04:04.790Z,990.46
2019-06-20T08:05:04.780Z,990.43
2019-06-20T08:06:04.816Z,990.43
2019-06-20T08:07:04.850Z,990.42
2019-06-20T08:08:04.899Z,990.50
2019-06-20T08:09:04.946Z,990.56
2019-06-20T08:10:04.990Z,990.55
2019-06-20T08:11:05.039Z,990.55
2019-06-20T08:12:05.085Z,990.62
2019-06-20T08:13:05.155Z,990.60
2019-06-20T08:14:05.180Z,990.67
2019-06-20T08:15:14.394Z,990.66
2019-06-20T08:16:05.276Z,990.64
2019-06-20T08:17:05.327Z,990.62
2019-06-20T08:18:05.380Z,990.60
2019-06-20T08:19:05.418Z,990.70
2019-06-20T08:20:05.467Z,990.79
2019-06-20T08:21:05.517Z,990.68
2019-06-20T08:22:05.566Z,990.54
2019-06-20T08:23:05.610Z,990.59
2019-06-20T08:24:05.696Z,990.66
2019-06-20T08:25:05.817Z,990.68
2019-06-20T08:26:06.948Z,990.66
2019-06-20T08:27:06.774Z,990.69
2019-06-20T08:28:06.640Z,990.76
2019-06-20T08:29:18.720Z,990.78
2019-06-20T08:30:07.197Z,990.70
2019-06-20T08:31:06.813Z,990.69
2019-06-20T08:32:06.602Z,990.64
2019-06-20T08:33:11.759Z,990.72
2019-06-20T08:34:06.556Z,990.74
2019-06-20T08:35:06.500Z,990.78
2019-06-20T08:36:06.727Z,990.86
2019-06-20T08:37:06.486Z,990.83
2019-06-20T08:38:07.573Z,990.71
2019-06-20T08:39:06.574Z,990.67
2019-06-20T08:40:06.593Z,990.67
2019-06-20T08:41:06.723Z,990.63
2019-06-20T08:42:06.527Z,990.61
2019-06-20T08:43:06.577Z,990.59
2019-06-20T08:44:06.625Z,990.59
2019-06-20T08:45:06.690Z,990.54
2019-06-20T08:46:10.171Z,990.54
2019-06-20T08:47:06.800Z,990.53
2019-06-20T08:48:07.453Z,990.65
2019-06-20T08:49:06.868Z,990.66
2019-06-20T08:50:06.954Z,990.70
2019-06-20T08:51:06.965Z,990.71
2019-06-20T08:52:07.023Z,990.71
2019-06-20T08:53:07.081Z,990.74
2019-06-20T08:54:07.115Z,990.79
2019-06-20T08:55:07.183Z,990.76
2019-06-20T08:56:07.216Z,990.78
2019-06-20T08:57:07.266Z,990.81
2019-06-20T08:58:07.311Z,990.79
2019-06-20T08:59:20.670Z,990.74
2019-06-20T09:00:07.430Z,990.70
2019-06-20T09:02:07.501Z,990.81
2019-06-20T09:03:07.558Z,990.80
2019-06-20T09:04:07.622Z,990.84
2019-06-20T09:05:07.647Z,990.80
2019-06-20T09:06:07.698Z,990.86
2019-06-20T09:07:07.746Z,990.85
2019-06-20T09:08:11.210Z,990.83
2019-06-20T09:09:07.845Z,990.80
2019-06-20T09:10:07.908Z,990.71
2019-06-20T09:11:07.940Z,990.72
2019-06-20T09:12:08.005Z,990.66
2019-06-20T09:13:08.041Z,990.65
2019-06-20T09:14:08.087Z,990.72
2019-06-20T09:15:08.252Z,990.74
2019-06-20T09:16:08.194Z,990.83
2019-06-20T09:17:08.247Z,990.87
2019-06-20T09:18:08.286Z,990.89
2019-06-20T09:19:08.334Z,990.88
2019-06-20T09:20:08.382Z,990.87
2019-06-20T09:21:08.499Z,990.89
2019-06-20T09:22:08.506Z,990.93
2019-06-20T09:23:08.540Z,990.89
2019-06-20T09:24:08.578Z,990.90
2019-06-20T09:25:08.628Z,990.94
2019-06-20T09:26:08.684Z,990.89
2019-06-20T09:27:08.741Z,990.85
2019-06-20T09:28:08.776Z,990.86
2019-06-20T09:29:08.825Z,990.84
2019-06-20T09:30:08.876Z,990.87
2019-06-20T09:31:08.923Z,990.84
2019-06-20T09:32:08.976Z,990.77
2019-06-20T09:33:09.022Z,990.67
2019-06-20T09:34:09.070Z,990.68
2019-06-20T09:35:09.120Z,990.68
2019-06-20T09:36:09.169Z,990.76
2019-06-20T09:37:09.220Z,990.76
2019-06-20T09:38:09.273Z,990.81
2019-06-20T09:39:09.317Z,990.75
2019-06-20T09:40:09.365Z,990.85
2019-06-20T09:41:09.418Z,990.94
2019-06-20T09:42:09.470Z,991.05
2019-06-20T09:43:09.524Z,991.00
2019-06-20T09:44:09.564Z,990.95
2019-06-20T09:45:09.620Z,990.87
2019-06-20T09:46:09.662Z,990.82
2019-06-20T09:47:09.712Z,990.87
2019-06-20T09:48:09.759Z,990.86
2019-06-20T09:49:09.810Z,990.84
2019-06-20T09:50:09.866Z,990.96
2019-06-20T09:51:09.906Z,991.02
2019-06-20T09:52:09.956Z,991.09
2019-06-20T09:53:10.015Z,991.17
2019-06-20T09:54:10.052Z,991.13
2019-06-20T09:55:10.102Z,991.19
2019-06-20T09:56:10.152Z,991.22
2019-06-20T09:57:10.213Z,991.23
2019-06-20T09:58:10.257Z,991.23
2019-06-20T09:59:26.608Z,991.23
2019-06-20T10:00:10.971Z,991.16
2019-06-20T10:01:10.397Z,991.19
2019-06-20T10:02:10.452Z,991.18
2019-06-20T10:03:10.498Z,991.24
2019-06-20T10:04:10.551Z,991.27
2019-06-20T10:05:10.716Z,991.27
2019-06-20T10:06:13.938Z,991.32
2019-06-20T10:07:10.703Z,991.30
2019-06-20T10:08:10.750Z,991.30
2019-06-20T10:09:10.791Z,991.32
2019-06-20T10:10:10.855Z,991.33
2019-06-20T10:11:10.904Z,991.27
2019-06-20T10:12:10.943Z,991.25
2019-06-20T10:13:10.989Z,991.19
2019-06-20T10:14:11.041Z,991.14
2019-06-20T10:15:11.094Z,991.09
2019-06-20T10:16:11.310Z,991.02
2019-06-20T10:17:11.187Z,991.01
2019-06-20T10:18:11.235Z,991.01
2019-06-20T10:19:13.375Z,991.00
2019-06-20T10:20:11.335Z,990.98
2019-06-20T10:21:11.393Z,990.97
2019-06-20T10:22:11.433Z,990.96
2019-06-20T10:23:11.491Z,990.92
2019-06-20T10:24:11.533Z,990.90
2019-06-20T10:25:11.605Z,991.02
2019-06-20T10:26:11.633Z,991.09
2019-06-20T10:27:11.688Z,990.97
2019-06-20T10:28:11.737Z,990.99
2019-06-20T10:29:11.792Z,990.92
2019-06-20T10:30:14.610Z,990.94
2019-06-20T10:31:11.879Z,991.04
2019-06-20T10:32:11.939Z,991.00
2019-06-20T10:33:11.977Z,991.00
2019-06-20T10:34:12.026Z,991.01
2019-06-20T10:35:12.079Z,991.02
2019-06-20T10:36:12.125Z,991.03
2019-06-20T10:37:12.177Z,991.10
2019-06-20T10:38:12.224Z,991.17
2019-06-20T10:39:12.276Z,991.12
2019-06-20T10:40:12.345Z,991.14
2019-06-20T10:41:12.376Z,991.07
2019-06-20T10:42:12.452Z,991.04
2019-06-20T10:43:12.469Z,991.04
2019-06-20T10:44:12.527Z,991.07
2019-06-20T10:45:12.571Z,991.14
2019-06-20T10:46:12.619Z,991.22
2019-06-20T10:47:12.671Z,991.27
2019-06-20T10:48:12.726Z,991.34
2019-06-20T10:49:12.767Z,991.35
2019-06-20T10:50:12.815Z,991.38
2019-06-20T10:51:12.874Z,991.35
2019-06-20T10:52:12.925Z,991.30
2019-06-20T10:53:12.981Z,991.29
2019-06-20T10:54:13.015Z,991.28
2019-06-20T10:55:13.065Z,991.25
2019-06-20T10:56:13.124Z,991.15
2019-06-20T10:57:13.179Z,991.14
2019-06-20T10:58:13.216Z,991.11
2019-06-20T10:59:13.281Z,991.11
2019-06-20T11:00:29.322Z,991.13
2019-06-20T11:01:13.385Z,991.16
2019-06-20T11:02:13.440Z,991.11
2019-06-20T11:03:13.462Z,991.08
2019-06-20T11:04:13.515Z,991.00
2019-06-20T11:05:13.625Z,991.04
2019-06-20T11:06:13.615Z,991.12
2019-06-20T11:07:13.671Z,991.04
2019-06-20T11:08:13.708Z,990.98
2019-06-20T11:09:13.777Z,990.92
2019-06-20T11:10:13.811Z,990.95
2019-06-20T11:11:13.867Z,990.86
2019-06-20T11:12:13.912Z,990.86
2019-06-20T11:13:13.961Z,990.90
2019-06-20T11:14:14.013Z,990.86
2019-06-20T11:15:14.060Z,990.87
2019-06-20T11:16:14.134Z,990.89
2019-06-20T11:17:14.158Z,990.93
2019-06-20T11:18:14.207Z,990.93
2019-06-20T11:19:14.263Z,990.92
2019-06-20T11:20:14.312Z,990.92
2019-06-20T11:21:14.369Z,990.96
2019-06-20T11:22:14.417Z,991.00
2019-06-20T11:23:14.454Z,990.99
2019-06-20T11:24:14.514Z,991.11
2019-06-20T11:25:14.568Z,991.12
2019-06-20T11:26:14.601Z,991.17
2019-06-20T11:27:14.650Z,991.06
2019-06-20T11:28:14.814Z,991.03
2019-06-20T11:29:14.770Z,991.05
2019-06-20T11:30:14.798Z,991.02
2019-06-20T11:31:14.847Z,991.10
2019-06-20T11:32:14.898Z,991.19
2019-06-20T11:33:14.950Z,991.14
2019-06-20T11:34:15.003Z,991.19
2019-06-20T11:35:15.050Z,991.18
2019-06-20T11:36:15.094Z,991.19
2019-06-20T11:37:15.146Z,991.14
2019-06-20T11:38:15.199Z,991.14
2019-06-20T11:39:15.244Z,991.17
2019-06-20T11:40:15.291Z,991.15
2019-06-20T11:41:15.349Z,991.18
2019-06-20T11:42:15.393Z,991.22
2019-06-20T11:43:15.440Z,991.22
2019-06-20T11:44:15.493Z,991.19
2019-06-20T11:45:15.541Z,991.21
2019-06-20T11:46:15.591Z,991.09
2019-06-20T11:47:15.638Z,991.11
2019-06-20T11:48:15.688Z,991.16
2019-06-20T11:49:15.739Z,991.14
2019-06-20T11:50:15.788Z,991.20
2019-06-20T11:51:15.936Z,991.18
2019-06-20T11:52:15.888Z,991.18
2019-06-20T11:53:15.953Z,991.22
2019-06-20T11:54:15.987Z,991.13
2019-06-20T11:55:16.036Z,991.07
2019-06-20T11:56:16.096Z,991.10
2019-06-20T11:57:16.140Z,991.17
2019-06-20T11:58:16.290Z,991.24
2019-06-20T11:59:16.236Z,991.23
2019-06-20T12:00:16.291Z,991.29
2019-06-20T12:01:16.342Z,991.26
2019-06-20T12:02:16.396Z,991.31
2019-06-20T12:03:16.449Z,991.34
2019-06-20T12:04:16.487Z,991.39
2019-06-20T12:05:16.613Z,991.37
2019-06-20T12:06:16.589Z,991.42
2019-06-20T12:07:16.640Z,991.40
2019-06-20T12:08:16.709Z,991.40
2019-06-20T12:09:16.749Z,991.41
2019-06-20T12:10:16.800Z,991.32
2019-06-20T12:11:16.842Z,991.33
2019-06-20T12:12:16.895Z,991.28
2019-06-20T12:13:16.955Z,991.26
2019-06-20T12:14:16.997Z,991.25
2019-06-20T12:15:17.053Z,991.26
2019-06-20T12:16:17.098Z,991.29
2019-06-20T12:17:17.151Z,991.31
2019-06-20T12:18:17.200Z,991.37
2019-06-20T12:19:17.248Z,991.37
2019-06-20T12:20:17.318Z,991.36
2019-06-20T12:21:17.431Z,991.36
2019-06-20T12:22:17.406Z,991.43
2019-06-20T12:23:17.451Z,991.43
2019-06-20T12:24:17.502Z,991.48
2019-06-20T12:25:17.560Z,991.46
2019-06-20T12:26:17.611Z,991.42
2019-06-20T12:27:17.653Z,991.40
2019-06-20T12:28:17.704Z,991.41
2019-06-20T12:29:17.769Z,991.44
2019-06-20T12:30:17.808Z,991.41